Time;durP1;ratioP1;P1;durP2;ratioP2;P2;SDS_P1;SDS_P2;PMS_P1;PMS_P2;Temp;Humidity;BMP_temperature;BMP_pressure;BME280_temperature;BME280_humidity;BME280_pressure;Samples;Min_cycle;Max_cycle;Signal;HPM_P1;HPM_P2
2021/06/22 00:00:08;;;;;;;;;;;16.50;94.50;;;;;;5035745;28;20406;-69
2021/06/22 00:02:34;;;;;;;;;;;16.60;94.40;;;;;;5037038;28;19925;-68
2021/06/22 00:04:59;;;;;;;;;;;16.50;94.30;;;;;;5036571;28;19921;-69
2021/06/22 00:07:25;;;;;;;;;;;16.50;94.30;;;;;;5036627;28;20038;-69
2021/06/22 00:09:50;;;;;;;;;;;16.50;94.50;;;;;;5036424;28;19925;-70
2021/06/22 00:12:16;;;;;;;;;;;16.50;94.50;;;;;;5036521;28;19923;-69
2021/06/22 00:14:41;;;;;;;;;;;16.50;94.40;;;;;;5036454;28;20444;-69
2021/06/22 00:17:07;;;;;;;;;;;16.50;94.40;;;;;;5036360;28;19920;-69
2021/06/22 00:19:32;;;;;;;;;;;16.50;94.40;;;;;;5036364;28;19969;-69
2021/06/22 00:21:58;;;;;;;;;;;16.60;94.50;;;;;;5036240;28;19925;-70
2021/06/22 00:24:24;;;;;;;;;;;16.60;94.60;;;;;;5034761;28;19960;-70
2021/06/22 00:26:49;;;;;;;;;;;16.50;94.50;;;;;;5036315;28;19947;-69
2021/06/22 00:29:16;;;;;;;;;;;16.60;94.40;;;;;;5036110;28;19928;-69
2021/06/22 00:31:42;;;;;;;;;;;16.60;94.40;;;;;;5036195;28;19924;-70
2021/06/22 00:34:07;;;;;;;;;;;16.60;94.50;;;;;;5035808;28;19928;-69
2021/06/22 00:36:33;;;;;;;;;;;16.60;94.40;;;;;;5036088;28;19931;-69
2021/06/22 00:38:58;;;;;;;;;;;16.60;94.40;;;;;;5034983;28;19924;-69
2021/06/22 00:41:24;;;;;;;;;;;16.60;94.60;;;;;;5035702;28;20426;-70
2021/06/22 00:43:50;;;;;;;;;;;16.70;94.50;;;;;;5035957;28;19921;-70
2021/06/22 00:46:15;;;;;;;;;;;16.70;94.40;;;;;;5035802;28;19942;-69
2021/06/22 00:48:41;;;;;;;;;;;16.70;94.50;;;;;;5034677;28;19924;-70
2021/06/22 00:51:06;;;;;;;;;;;16.60;94.50;;;;;;5035951;28;20071;-70
2021/06/22 00:53:32;;;;;;;;;;;16.70;94.60;;;;;;5035639;28;19966;-69
2021/06/22 00:55:57;;;;;;;;;;;16.60;94.70;;;;;;5035663;28;20029;-70
2021/06/22 00:58:23;;;;;;;;;;;16.60;94.70;;;;;;5035468;28;20019;-69
2021/06/22 01:00:49;;;;;;;;;;;16.60;94.80;;;;;;5035749;28;19931;-69
2021/06/22 01:03:14;;;;;;;;;;;16.60;94.70;;;;;;5034404;28;19927;-69
2021/06/22 01:05:40;;;;;;;;;;;16.60;94.70;;;;;;5035400;28;20414;-70
2021/06/22 01:08:05;;;;;;;;;;;16.60;94.70;;;;;;5035519;28;19928;-70
2021/06/22 01:10:31;;;;;;;;;;;16.60;94.60;;;;;;5035466;28;20005;-70
2021/06/22 01:12:57;;;;;;;;;;;16.50;94.70;;;;;;5034283;28;19989;-69
2021/06/22 01:15:23;;;;;;;;;;;16.50;94.70;;;;;;5035400;28;20292;-69
2021/06/22 01:17:55;;;;;;;;;;;16.50;94.90;;;;;;5035240;28;19972;-70
2021/06/22 01:20:22;;;;;;;;;;;16.50;94.80;;;;;;5034114;28;19996;-70
2021/06/22 01:22:48;;;;;;;;;;;16.50;94.80;;;;;;5034847;28;20001;-69
2021/06/22 01:25:13;;;;;;;;;;;16.50;94.90;;;;;;5034129;28;20344;-70
2021/06/22 01:27:39;;;;;;;;;;;16.40;95.00;;;;;;5035071;28;19947;-69
2021/06/22 01:30:05;;;;;;;;;;;16.50;94.90;;;;;;5035016;28;20382;-69
2021/06/22 01:32:30;;;;;;;;;;;16.50;94.90;;;;;;5035173;28;20006;-69
2021/06/22 01:34:56;;;;;;;;;;;16.50;94.90;;;;;;5035131;28;20015;-69
2021/06/22 01:37:22;;;;;;;;;;;16.40;95.00;;;;;;5035118;28;20017;-70
2021/06/22 01:39:47;;;;;;;;;;;16.40;94.90;;;;;;5033727;28;19963;-70
2021/06/22 01:42:13;;;;;;;;;;;16.40;95.00;;;;;;5034735;28;19921;-69
2021/06/22 01:44:38;;;;;;;;;;;16.40;95.00;;;;;;5034357;28;19923;-69
2021/06/22 01:47:05;;;;;;;;;;;16.40;94.90;;;;;;5034937;28;19942;-70
2021/06/22 01:49:30;;;;;;;;;;;16.40;94.90;;;;;;5034912;28;19930;-69
2021/06/22 01:51:56;;;;;;;;;;;16.40;94.90;;;;;;5033636;28;19961;-69
2021/06/22 01:54:21;;;;;;;;;;;16.40;95.00;;;;;;5034638;28;20435;-69
2021/06/22 01:56:50;;;;;;;;;;;16.40;95.00;;;;;;5034706;28;19945;-70
2021/06/22 01:59:15;;;;;;;;;;;16.40;95.00;;;;;;5034687;28;19970;-69
2021/06/22 02:01:41;;;;;;;;;;;16.40;95.00;;;;;;5033477;28;20340;-69
2021/06/22 02:04:07;;;;;;;;;;;16.40;94.90;;;;;;5033543;28;20342;-69
2021/06/22 02:06:32;;;;;;;;;;;16.40;95.10;;;;;;5034214;28;19951;-69
2021/06/22 02:08:58;;;;;;;;;;;16.40;95.10;;;;;;5034364;28;20010;-69
2021/06/22 02:11:23;;;;;;;;;;;16.40;95.10;;;;;;5034416;28;19922;-69
2021/06/22 02:13:49;;;;;;;;;;;16.40;95.00;;;;;;5034465;28;19951;-69
2021/06/22 02:16:15;;;;;;;;;;;16.40;95.20;;;;;;5033195;28;19924;-69
2021/06/22 02:18:40;;;;;;;;;;;16.40;95.00;;;;;;5034048;28;19922;-69
2021/06/22 02:21:06;;;;;;;;;;;16.50;95.10;;;;;;5034369;28;19924;-69
2021/06/22 02:23:33;;;;;;;;;;;16.50;95.10;;;;;;5033853;28;19962;-70
2021/06/22 02:25:58;;;;;;;;;;;16.40;95.00;;;;;;5032964;28;19943;-69
2021/06/22 02:28:24;;;;;;;;;;;16.40;95.10;;;;;;5034157;28;20409;-69
2021/06/22 02:30:49;;;;;;;;;;;16.30;95.10;;;;;;5033799;28;20445;-70
2021/06/22 02:33:15;;;;;;;;;;;16.40;95.10;;;;;;5032729;28;20390;-69
2021/06/22 02:35:40;;;;;;;;;;;16.40;95.40;;;;;;5032912;28;19922;-69
2021/06/22 02:38:06;;;;;;;;;;;16.40;95.20;;;;;;5034065;28;20387;-69
2021/06/22 02:40:31;;;;;;;;;;;16.40;95.10;;;;;;5032627;28;20135;-70
2021/06/22 02:42:57;;;;;;;;;;;16.30;95.00;;;;;;5033654;28;19924;-69
2021/06/22 02:45:22;;;;;;;;;;;16.30;95.10;;;;;;5033763;28;20124;-69
2021/06/22 02:47:48;;;;;;;;;;;16.30;95.20;;;;;;5033827;28;19944;-69
2021/06/22 02:50:14;;;;;;;;;;;16.30;95.20;;;;;;5033819;28;19924;-69
2021/06/22 02:52:39;;;;;;;;;;;16.30;95.10;;;;;;5034074;28;19957;-69
2021/06/22 02:55:05;;;;;;;;;;;16.30;95.20;;;;;;5032551;28;19931;-69
2021/06/22 02:57:31;;;;;;;;;;;16.30;95.10;;;;;;5031411;28;19941;-69
2021/06/22 02:59:56;;;;;;;;;;;16.20;95.10;;;;;;5032653;28;20371;-69
2021/06/22 03:02:22;;;;;;;;;;;16.20;95.20;;;;;;5033684;28;19923;-70
2021/06/22 03:04:47;;;;;;;;;;;16.20;95.20;;;;;;5033795;28;19923;-70
2021/06/22 03:07:13;;;;;;;;;;;16.20;95.20;;;;;;5033517;28;19993;-69
2021/06/22 03:09:38;;;;;;;;;;;16.20;95.20;;;;;;5033409;28;19926;-69
2021/06/22 03:12:04;;;;;;;;;;;16.20;95.20;;;;;;5032414;28;19924;-69
2021/06/22 03:14:29;;;;;;;;;;;16.20;95.30;;;;;;5033804;28;19934;-69
2021/06/22 03:16:55;;;;;;;;;;;16.10;95.10;;;;;;5033475;28;20330;-69
2021/06/22 03:19:20;;;;;;;;;;;16.20;95.20;;;;;;5033561;28;19923;-70
2021/06/22 03:21:48;;;;;;;;;;;16.10;95.30;;;;;;5033311;28;19922;-69
2021/06/22 03:24:14;;;;;;;;;;;16.10;95.20;;;;;;5031983;28;20453;-70
2021/06/22 03:26:39;;;;;;;;;;;16.10;95.20;;;;;;5032224;28;19946;-69
2021/06/22 03:29:05;;;;;;;;;;;16.10;95.30;;;;;;5032275;28;19926;-69
2021/06/22 03:31:31;;;;;;;;;;;16.10;95.20;;;;;;5032242;28;20011;-69
2021/06/22 03:33:56;;;;;;;;;;;16.10;95.20;;;;;;5033431;28;19954;-69
2021/06/22 03:36:22;;;;;;;;;;;16.00;95.30;;;;;;5033348;28;19929;-69
2021/06/22 03:38:47;;;;;;;;;;;16.00;95.30;;;;;;5033323;28;19919;-70
2021/06/22 03:41:13;;;;;;;;;;;16.00;95.40;;;;;;5032997;28;20375;-70
2021/06/22 03:43:38;;;;;;;;;;;16.00;95.30;;;;;;5033292;28;19933;-70
2021/06/22 03:46:04;;;;;;;;;;;15.90;95.30;;;;;;5032979;28;20432;-70
2021/06/22 03:48:30;;;;;;;;;;;15.90;95.40;;;;;;5033264;28;19970;-71
2021/06/22 03:50:55;;;;;;;;;;;15.80;95.40;;;;;;5033256;28;19971;-69
2021/06/22 03:53:21;;;;;;;;;;;15.80;95.40;;;;;;5033205;28;19922;-69
2021/06/22 03:55:46;;;;;;;;;;;15.70;95.30;;;;;;5033091;28;19988;-69
2021/06/22 03:58:12;;;;;;;;;;;15.60;95.40;;;;;;5032929;28;19952;-70
2021/06/22 04:00:37;;;;;;;;;;;15.60;95.30;;;;;;5033132;28;19929;-70
2021/06/22 04:03:03;;;;;;;;;;;15.50;95.40;;;;;;5033108;28;19937;-69
2021/06/22 04:05:29;;;;;;;;;;;15.50;95.60;;;;;;5032991;28;19922;-69
2021/06/22 04:07:54;;;;;;;;;;;15.50;95.60;;;;;;5032630;28;20035;-69
2021/06/22 04:10:20;;;;;;;;;;;15.50;95.40;;;;;;5036519;28;19971;-69
2021/06/22 04:12:45;;;;;;;;;;;15.50;95.60;;;;;;5036768;28;20012;-69
2021/06/22 04:15:11;;;;;;;;;;;15.40;95.50;;;;;;5036695;28;19923;-70
2021/06/22 04:17:36;;;;;;;;;;;15.40;95.60;;;;;;5036447;28;20468;-70
2021/06/22 04:20:03;;;;;;;;;;;15.40;95.70;;;;;;5036513;28;19921;-69
2021/06/22 04:22:28;;;;;;;;;;;15.30;95.50;;;;;;5034785;28;20372;-69
2021/06/22 04:24:54;;;;;;;;;;;15.30;95.70;;;;;;5036573;28;19916;-70
2021/06/22 04:27:19;;;;;;;;;;;15.30;95.60;;;;;;5036406;28;19948;-69
2021/06/22 04:29:45;;;;;;;;;;;15.30;95.60;;;;;;5036264;28;19927;-69
2021/06/22 04:32:10;;;;;;;;;;;15.30;95.80;;;;;;5035315;28;20397;-69
2021/06/22 04:34:36;;;;;;;;;;;15.20;95.70;;;;;;5035992;28;19922;-69
2021/06/22 04:37:01;;;;;;;;;;;15.20;95.80;;;;;;5036372;28;19925;-70
2021/06/22 04:39:27;;;;;;;;;;;15.20;95.70;;;;;;5034890;28;20007;-70
2021/06/22 04:41:52;;;;;;;;;;;15.10;95.70;;;;;;5036012;28;20471;-70
2021/06/22 04:44:18;;;;;;;;;;;15.10;95.70;;;;;;5036188;28;19922;-69
2021/06/22 04:46:43;;;;;;;;;;;15.10;95.80;;;;;;5035714;28;19943;-70
2021/06/22 04:49:09;;;;;;;;;;;15.00;95.50;;;;;;5035996;28;19921;-70
2021/06/22 04:51:34;;;;;;;;;;;15.10;95.60;;;;;;5035989;28;19931;-68
2021/06/22 04:54:00;;;;;;;;;;;15.00;95.80;;;;;;5035784;28;20357;-69
2021/06/22 04:56:25;;;;;;;;;;;15.00;95.60;;;;;;5035940;28;19939;-69
2021/06/22 04:58:52;;;;;;;;;;;15.00;95.60;;;;;;5034364;28;19923;-69
2021/06/22 05:01:17;;;;;;;;;;;14.90;95.70;;;;;;5035843;28;19926;-70
2021/06/22 05:03:43;;;;;;;;;;;14.90;95.80;;;;;;5035784;28;20434;-69
2021/06/22 05:06:08;;;;;;;;;;;14.90;95.90;;;;;;5034378;28;19946;-69
2021/06/22 05:08:34;;;;;;;;;;;14.90;95.80;;;;;;5034759;28;19923;-70
2021/06/22 05:10:59;;;;;;;;;;;14.90;95.70;;;;;;5035622;28;19922;-69
2021/06/22 05:13:25;;;;;;;;;;;15.00;95.70;;;;;;5035597;28;19973;-70
2021/06/22 05:15:50;;;;;;;;;;;15.00;95.80;;;;;;5035565;28;20409;-70
2021/06/22 05:18:16;;;;;;;;;;;15.00;95.50;;;;;;5035329;28;19928;-69
2021/06/22 05:20:41;;;;;;;;;;;14.90;95.60;;;;;;5034410;28;19922;-69
2021/06/22 05:23:07;;;;;;;;;;;14.90;95.80;;;;;;5035189;28;19961;-70
2021/06/22 05:25:32;;;;;;;;;;;14.90;95.80;;;;;;5035391;28;19950;-69
2021/06/22 05:27:58;;;;;;;;;;;14.90;95.70;;;;;;5035222;28;19952;-69
2021/06/22 05:30:23;;;;;;;;;;;14.90;95.60;;;;;;5033887;28;19953;-70
2021/06/22 05:32:49;;;;;;;;;;;14.90;95.70;;;;;;5035285;28;19921;-70
2021/06/22 05:35:14;;;;;;;;;;;14.90;95.60;;;;;;5035193;28;19935;-70
2021/06/22 05:37:40;;;;;;;;;;;14.90;95.60;;;;;;5035086;28;19976;-69
2021/06/22 05:40:06;;;;;;;;;;;14.90;95.50;;;;;;5034875;28;20017;-69
2021/06/22 05:42:32;;;;;;;;;;;14.80;95.50;;;;;;5034768;28;19934;-70
2021/06/22 05:44:57;;;;;;;;;;;14.80;95.70;;;;;;5034886;28;19923;-70
2021/06/22 05:47:23;;;;;;;;;;;14.90;95.70;;;;;;5035030;28;19953;-70
2021/06/22 05:49:48;;;;;;;;;;;14.90;95.50;;;;;;5034833;28;19949;-69
2021/06/22 05:52:14;;;;;;;;;;;14.80;95.50;;;;;;5034822;28;19964;-69
2021/06/22 05:54:39;;;;;;;;;;;14.90;95.40;;;;;;5034579;28;19926;-69
2021/06/22 05:57:06;;;;;;;;;;;14.80;95.70;;;;;;5034610;28;19940;-70
2021/06/22 05:59:31;;;;;;;;;;;14.90;95.50;;;;;;5033853;28;19924;-69
2021/06/22 06:01:57;;;;;;;;;;;14.90;95.60;;;;;;5034744;28;20387;-70
2021/06/22 06:04:22;;;;;;;;;;;14.90;95.50;;;;;;5034600;28;19923;-70
2021/06/22 06:06:48;;;;;;;;;;;14.90;95.50;;;;;;5034280;28;19944;-70
2021/06/22 06:09:15;;;;;;;;;;;14.90;95.50;;;;;;5034367;28;20343;-69
2021/06/22 06:11:40;;;;;;;;;;;14.90;95.40;;;;;;5034462;28;19925;-69
2021/06/22 06:14:06;;;;;;;;;;;15.00;95.40;;;;;;5034439;28;20372;-70
2021/06/22 06:16:32;;;;;;;;;;;14.90;95.40;;;;;;5033295;28;19928;-70
2021/06/22 06:18:57;;;;;;;;;;;14.90;95.40;;;;;;5034093;28;19920;-70
2021/06/22 06:21:24;;;;;;;;;;;14.90;95.40;;;;;;5034205;28;20405;-69
2021/06/22 06:23:50;;;;;;;;;;;14.90;95.30;;;;;;5034088;28;19953;-70
2021/06/22 06:26:18;;;;;;;;;;;14.90;95.40;;;;;;5033011;28;20470;-68
2021/06/22 06:28:51;;;;;;;;;;;14.90;95.30;;;;;;5034315;28;19931;-69
2021/06/22 06:31:16;;;;;;;;;;;14.90;95.40;;;;;;5033685;28;19969;-70
2021/06/22 06:33:42;;;;;;;;;;;14.90;95.20;;;;;;5033913;28;19927;-70
2021/06/22 06:36:07;;;;;;;;;;;14.90;95.30;;;;;;5034064;28;20413;-69
2021/06/22 06:38:33;;;;;;;;;;;14.90;95.10;;;;;;5034104;28;20336;-70
2021/06/22 06:40:58;;;;;;;;;;;14.90;95.00;;;;;;5032506;28;19925;-70
2021/06/22 06:43:24;;;;;;;;;;;14.90;95.20;;;;;;5033875;28;19954;-69
2021/06/22 06:45:49;;;;;;;;;;;14.90;95.10;;;;;;5032376;28;19933;-70
2021/06/22 06:48:15;;;;;;;;;;;15.00;95.30;;;;;;5032749;28;19930;-70
2021/06/22 06:50:40;;;;;;;;;;;15.00;95.10;;;;;;5032777;28;19924;-69
2021/06/22 06:53:06;;;;;;;;;;;15.00;95.10;;;;;;5033825;28;19922;-70
2021/06/22 06:55:43;;;;;;;;;;;15.00;94.70;;;;;;5030161;28;20398;-77
2021/06/22 06:58:08;;;;;;;;;;;15.00;95.10;;;;;;5032364;28;19985;-77
2021/06/22 07:00:34;;;;;;;;;;;15.00;94.70;;;;;;5032485;28;20375;-77
2021/06/22 07:03:00;;;;;;;;;;;15.00;94.80;;;;;;5033466;28;19926;-76
2021/06/22 07:05:25;;;;;;;;;;;14.90;95.00;;;;;;5030541;28;19938;-79
2021/06/22 07:07:51;;;;;;;;;;;15.00;94.90;;;;;;5032335;28;19942;-83
2021/06/22 07:10:17;;;;;;;;;;;15.00;94.90;;;;;;5032285;28;19923;-80
2021/06/22 07:12:42;;;;;;;;;;;15.00;95.00;;;;;;5030468;28;19939;-75
2021/06/22 07:15:08;;;;;;;;;;;15.00;94.80;;;;;;5032726;28;19923;-81
2021/06/22 07:17:34;;;;;;;;;;;15.00;94.80;;;;;;5032877;28;19939;-74
2021/06/22 07:19:59;;;;;;;;;;;14.90;95.20;;;;;;5032629;28;19922;-76
2021/06/22 07:22:25;;;;;;;;;;;14.90;94.90;;;;;;5027879;28;19952;-69
2021/06/22 07:24:51;;;;;;;;;;;14.90;94.80;;;;;;5031388;28;19949;-71
2021/06/22 07:27:16;;;;;;;;;;;14.90;94.70;;;;;;5028871;28;19946;-73
2021/06/22 07:29:42;;;;;;;;;;;14.90;94.90;;;;;;5032465;28;19931;-75
2021/06/22 07:32:08;;;;;;;;;;;14.90;94.80;;;;;;5031230;28;19948;-76
2021/06/22 07:34:35;;;;;;;;;;;14.90;94.80;;;;;;5032656;28;19966;-72
2021/06/22 07:37:00;;;;;;;;;;;14.90;95.00;;;;;;5033192;28;20409;-72
2021/06/22 07:39:25;;;;;;;;;;;14.90;94.90;;;;;;5032128;28;19928;-71
2021/06/22 07:41:51;;;;;;;;;;;14.90;94.90;;;;;;5033803;28;19928;-70
2021/06/22 07:44:16;;;;;;;;;;;14.80;94.90;;;;;;5035767;28;20317;-70
2021/06/22 07:46:42;;;;;;;;;;;14.80;95.00;;;;;;5036146;28;19949;-71
2021/06/22 07:49:08;;;;;;;;;;;14.80;94.90;;;;;;5036055;28;19926;-72
2021/06/22 07:51:33;;;;;;;;;;;14.80;95.10;;;;;;5036281;28;19937;-71
2021/06/22 07:53:59;;;;;;;;;;;14.80;95.10;;;;;;5036326;28;20005;-72
2021/06/22 07:56:24;;;;;;;;;;;14.70;95.30;;;;;;5037500;28;19943;-72
2021/06/22 07:58:50;;;;;;;;;;;14.70;95.20;;;;;;5034999;28;20373;-76
2021/06/22 08:01:19;;;;;;;;;;;14.70;95.30;;;;;;5034440;28;19972;-76
2021/06/22 08:03:44;;;;;;;;;;;14.70;95.40;;;;;;5035603;28;19981;-75
2021/06/22 08:06:10;;;;;;;;;;;14.70;95.40;;;;;;5035686;28;20065;-76
2021/06/22 08:08:36;;;;;;;;;;;14.80;95.40;;;;;;5035758;28;19984;-77
2021/06/22 08:11:01;;;;;;;;;;;14.80;95.30;;;;;;5034716;28;19931;-74
2021/06/22 08:13:27;;;;;;;;;;;14.80;95.40;;;;;;5033665;28;20411;-74
2021/06/22 08:15:53;;;;;;;;;;;14.80;95.40;;;;;;5035334;28;19963;-78
2021/06/22 08:18:18;;;;;;;;;;;14.80;95.50;;;;;;5035292;28;19934;-74
2021/06/22 08:20:44;;;;;;;;;;;14.80;95.40;;;;;;5033553;28;19930;-70
2021/06/22 08:23:10;;;;;;;;;;;14.90;95.40;;;;;;5036027;28;19961;-71
2021/06/22 08:25:35;;;;;;;;;;;14.80;95.40;;;;;;5034615;28;19986;-71
2021/06/22 08:28:01;;;;;;;;;;;14.80;95.50;;;;;;5036014;28;19947;-71
2021/06/22 08:30:27;;;;;;;;;;;14.90;95.40;;;;;;5033527;28;20390;-71
2021/06/22 08:32:52;;;;;;;;;;;15.00;95.50;;;;;;5033632;28;19999;-78
2021/06/22 08:35:18;;;;;;;;;;;15.10;95.40;;;;;;5033919;28;19933;-77
2021/06/22 08:37:44;;;;;;;;;;;15.20;95.40;;;;;;5036433;28;19926;-72
2021/06/22 08:40:10;;;;;;;;;;;15.40;95.20;;;;;;5035748;28;20409;-80
2021/06/22 08:42:35;;;;;;;;;;;15.60;94.70;;;;;;5034458;28;20418;-71
2021/06/22 08:45:01;;;;;;;;;;;15.70;94.60;;;;;;5036321;28;19932;-73
2021/06/22 08:47:27;;;;;;;;;;;15.80;94.40;;;;;;5034669;28;20474;-81
2021/06/22 08:49:53;;;;;;;;;;;15.80;94.30;;;;;;5031500;28;19940;-76
2021/06/22 08:52:25;;;;;;;;;;;15.70;94.40;;;;;;5033439;28;19925;-76
2021/06/22 08:54:51;;;;;;;;;;;15.70;94.60;;;;;;5036171;28;20370;-75
2021/06/22 08:57:16;;;;;;;;;;;15.70;94.20;;;;;;5034229;28;20368;-74
2021/06/22 08:59:42;;;;;;;;;;;15.70;94.40;;;;;;5035688;28;19924;-79
2021/06/22 09:02:07;;;;;;;;;;;15.70;94.50;;;;;;5035775;28;19923;-77
2021/06/22 09:04:33;;;;;;;;;;;15.70;94.40;;;;;;5033934;28;19940;-70
2021/06/22 09:06:58;;;;;;;;;;;15.60;94.20;;;;;;5036107;28;19946;-81
2021/06/22 09:09:33;;;;;;;;;;;15.70;94.20;;;;;;5042988;28;20407;-79
2021/06/22 09:12:03;;;;;;;;;;;15.60;94.50;;;;;;5035968;28;19922;-78
2021/06/22 09:14:32;;;;;;;;;;;15.60;94.30;;;;;;5032662;28;19937;-80
2021/06/22 09:17:01;;;;;;;;;;;15.50;94.10;;;;;;5034635;28;19973;-71
2021/06/22 09:19:26;;;;;;;;;;;15.50;94.50;;;;;;5035388;28;20256;-80
2021/06/22 09:21:53;;;;;;;;;;;15.50;94.40;;;;;;5034137;28;19971;-74
2021/06/22 09:24:24;;;;;;;;;;;15.40;94.20;;;;;;5033852;28;20321;-75
2021/06/22 09:26:50;;;;;;;;;;;15.30;94.30;;;;;;5034186;28;19949;-79
2021/06/22 09:29:20;;;;;;;;;;;15.20;94.30;;;;;;5034759;28;19923;-79
2021/06/22 09:31:56;;;;;;;;;;;15.20;94.40;;;;;;5022039;28;19935;-78
2021/06/22 09:34:24;;;;;;;;;;;15.20;94.40;;;;;;5020513;28;19935;-75
2021/06/22 09:36:50;;;;;;;;;;;15.20;94.00;;;;;;5026658;28;20337;-79
2021/06/22 09:39:16;;;;;;;;;;;15.20;93.90;;;;;;5033972;28;20389;-71
2021/06/22 09:41:42;;;;;;;;;;;15.20;94.00;;;;;;5034550;28;20007;-72
2021/06/22 09:44:11;;;;;;;;;;;15.20;93.90;;;;;;5034209;28;20022;-77
2021/06/22 09:46:38;;;;;;;;;;;15.20;94.20;;;;;;5023093;28;19950;-77
2021/06/22 09:49:04;;;;;;;;;;;15.20;93.70;;;;;;5031407;28;19971;-76
2021/06/22 09:51:32;;;;;;;;;;;15.20;94.20;;;;;;5034923;28;19924;-75
2021/06/22 09:54:07;;;;;;;;;;;15.10;93.70;;;;;;5034976;28;20393;-79
2021/06/22 09:56:33;;;;;;;;;;;15.10;93.90;;;;;;5034159;28;20017;-80
2021/06/22 09:59:00;;;;;;;;;;;15.10;93.80;;;;;;5033054;28;20015;-76
2021/06/22 10:01:25;;;;;;;;;;;15.10;94.00;;;;;;5032826;28;19927;-76
2021/06/22 10:03:51;;;;;;;;;;;15.10;93.90;;;;;;5034824;28;20308;-77
2021/06/22 10:06:16;;;;;;;;;;;15.00;94.10;;;;;;5032273;28;20050;-78
2021/06/22 10:08:52;;;;;;;;;;;15.00;94.10;;;;;;5035184;28;19960;-79
2021/06/22 10:11:34;;;;;;;;;;;15.10;94.10;;;;;;5034111;28;19937;-75
2021/06/22 10:13:59;;;;;;;;;;;15.00;93.80;;;;;;5032299;28;20274;-73
2021/06/22 10:16:26;;;;;;;;;;;15.00;93.90;;;;;;5045590;28;19928;-71
2021/06/22 10:18:52;;;;;;;;;;;15.00;93.70;;;;;;5033601;28;19972;-77
2021/06/22 10:21:17;;;;;;;;;;;15.00;94.10;;;;;;5032741;28;19934;-72
2021/06/22 10:23:43;;;;;;;;;;;14.90;94.00;;;;;;5030552;28;20397;-71
2021/06/22 10:26:08;;;;;;;;;;;15.00;94.10;;;;;;5015011;28;20468;-70
2021/06/22 10:28:34;;;;;;;;;;;14.90;93.90;;;;;;5014857;28;19928;-69
2021/06/22 10:30:59;;;;;;;;;;;15.00;94.10;;;;;;5049192;28;19930;-69
2021/06/22 10:33:25;;;;;;;;;;;15.00;94.00;;;;;;5046824;28;19922;-69
2021/06/22 10:35:51;;;;;;;;;;;14.90;93.70;;;;;;5031375;28;20059;-69
2021/06/22 10:38:17;;;;;;;;;;;15.00;93.80;;;;;;5048442;28;20400;-69
2021/06/22 10:40:42;;;;;;;;;;;15.00;94.00;;;;;;5031981;28;19931;-69
2021/06/22 10:43:08;;;;;;;;;;;15.10;94.00;;;;;;5048416;28;20442;-70
2021/06/22 10:45:51;;;;;;;;;;;15.10;93.80;;;;;;5032633;28;19926;-70
2021/06/22 10:48:17;;;;;;;;;;;15.10;93.60;;;;;;5048284;28;20000;-69
2021/06/22 10:50:42;;;;;;;;;;;15.20;93.40;;;;;;5048215;28;19922;-69
2021/06/22 10:53:08;;;;;;;;;;;15.20;93.60;;;;;;5047905;28;19945;-69
2021/06/22 10:55:35;;;;;;;;;;;15.20;93.70;;;;;;5032403;28;20422;-69
2021/06/22 10:58:01;;;;;;;;;;;15.10;93.30;;;;;;5032427;28;19980;-69
2021/06/22 11:00:28;;;;;;;;;;;15.10;93.70;;;;;;5032646;28;19927;-69
2021/06/22 11:03:03;;;;;;;;;;;15.10;93.80;;;;;;5047939;28;20310;-68
2021/06/22 11:05:29;;;;;;;;;;;15.00;93.70;;;;;;5047938;28;19930;-69
2021/06/22 11:08:10;;;;;;;;;;;15.10;93.90;;;;;;5032576;28;20018;-70
2021/06/22 11:10:36;;;;;;;;;;;15.20;93.80;;;;;;5032421;28;19923;-69
2021/06/22 11:13:02;;;;;;;;;;;15.30;93.50;;;;;;5047997;28;20107;-69
2021/06/22 11:15:43;;;;;;;;;;;15.30;93.60;;;;;;5032533;28;20378;-69
2021/06/22 11:18:10;;;;;;;;;;;15.40;93.40;;;;;;5033886;28;19929;-69
2021/06/22 11:20:36;;;;;;;;;;;15.40;93.40;;;;;;5036654;28;19934;-69
2021/06/22 11:23:05;;;;;;;;;;;15.30;93.40;;;;;;5051822;28;19960;-69
2021/06/22 11:25:47;;;;;;;;;;;15.30;93.20;;;;;;5052119;28;19922;-69
2021/06/22 11:28:12;;;;;;;;;;;15.30;93.40;;;;;;5051992;28;19946;-69
2021/06/22 11:30:48;;;;;;;;;;;15.20;93.20;;;;;;5051888;28;19924;-69
2021/06/22 11:33:29;;;;;;;;;;;15.20;93.40;;;;;;5035165;28;19929;-69
2021/06/22 11:36:21;;;;;;;;;;;15.20;93.40;;;;;;5051639;28;19924;-69
2021/06/22 11:39:06;;;;;;;;;;;15.20;93.10;;;;;;5037888;28;19976;-69
2021/06/22 11:41:31;;;;;;;;;;;15.20;93.10;;;;;;5016428;28;20035;-69
2021/06/22 11:44:09;;;;;;;;;;;15.20;93.20;;;;;;5016308;28;20452;-69
2021/06/22 11:46:35;;;;;;;;;;;15.10;93.20;;;;;;5015845;28;20004;-69
2021/06/22 11:49:00;;;;;;;;;;;15.20;93.00;;;;;;5016117;28;19921;-69
2021/06/22 11:51:45;;;;;;;;;;;15.10;93.10;;;;;;5014940;28;19920;-69
2021/06/22 11:54:10;;;;;;;;;;;15.10;92.90;;;;;;5016116;28;19923;-70
2021/06/22 11:56:36;;;;;;;;;;;15.20;93.00;;;;;;5014710;28;19946;-69
2021/06/22 11:59:01;;;;;;;;;;;15.20;93.00;;;;;;5015973;28;19927;-69
2021/06/22 12:01:27;;;;;;;;;;;15.10;92.90;;;;;;5015953;28;20056;-69
2021/06/22 12:03:53;;;;;;;;;;;15.20;92.80;;;;;;5015881;28;19922;-69
2021/06/22 12:06:20;;;;;;;;;;;15.20;92.80;;;;;;5014575;28;19977;-69
2021/06/22 12:08:46;;;;;;;;;;;15.20;92.80;;;;;;5014600;28;20281;-69
2021/06/22 12:11:13;;;;;;;;;;;15.30;92.70;;;;;;5015797;28;19932;-69
2021/06/22 12:13:42;;;;;;;;;;;15.30;92.30;;;;;;5015753;28;20466;-69
2021/06/22 12:16:14;;;;;;;;;;;15.30;92.50;;;;;;5015648;28;19925;-69
2021/06/22 12:18:40;;;;;;;;;;;15.30;92.30;;;;;;5015679;28;20018;-69
2021/06/22 12:21:05;;;;;;;;;;;15.30;92.40;;;;;;5014264;28;19998;-69
2021/06/22 12:23:31;;;;;;;;;;;15.40;92.40;;;;;;5015455;28;20421;-69
2021/06/22 12:25:57;;;;;;;;;;;15.40;92.40;;;;;;5014260;28;19934;-69
2021/06/22 12:28:24;;;;;;;;;;;15.30;92.30;;;;;;5015087;28;20315;-69
2021/06/22 12:30:50;;;;;;;;;;;15.30;92.10;;;;;;5015435;28;19930;-69
2021/06/22 12:33:23;;;;;;;;;;;15.30;92.00;;;;;;5014105;28;20311;-69
2021/06/22 12:35:49;;;;;;;;;;;15.30;92.10;;;;;;5015343;28;19984;-69
2021/06/22 12:38:15;;;;;;;;;;;15.40;92.00;;;;;;5015409;28;19927;-69
2021/06/22 12:40:46;;;;;;;;;;;15.50;91.70;;;;;;5036862;28;20370;-69
2021/06/22 12:43:12;;;;;;;;;;;15.50;91.80;;;;;;5033933;28;20385;-69
2021/06/22 12:45:37;;;;;;;;;;;15.50;92.00;;;;;;5034787;28;19924;-69
2021/06/22 12:48:03;;;;;;;;;;;15.40;91.50;;;;;;5033633;28;20036;-69
2021/06/22 12:50:29;;;;;;;;;;;15.40;91.70;;;;;;5033720;28;20463;-69
2021/06/22 12:52:55;;;;;;;;;;;15.40;91.50;;;;;;5033674;28;19947;-68
2021/06/22 12:56:03;;;;;;;;;;;15.40;91.40;;;;;;5034712;28;20381;-69
2021/06/22 12:58:24;;;;;;;;;;;15.40;91.60;;;;;;5033339;28;19927;-69
2021/06/22 13:00:50;;;;;;;;;;;15.40;91.50;;;;;;5033709;28;20377;-69
2021/06/22 13:03:16;;;;;;;;;;;15.40;91.50;;;;;;5034764;28;19930;-69
2021/06/22 13:05:43;;;;;;;;;;;15.40;91.60;;;;;;5033379;28;20342;-69
2021/06/22 13:08:09;;;;;;;;;;;15.40;91.50;;;;;;5034508;28;19969;-68
2021/06/22 13:10:43;;;;;;;;;;;15.30;91.40;;;;;;5034351;28;19957;-69
2021/06/22 13:13:08;;;;;;;;;;;15.30;91.50;;;;;;5033389;28;19927;-69
2021/06/22 13:15:33;;;;;;;;;;;15.40;91.40;;;;;;5034340;28;19925;-70
2021/06/22 13:17:59;;;;;;;;;;;15.40;91.40;;;;;;5034448;28;19957;-70
2021/06/22 13:20:25;;;;;;;;;;;15.50;91.20;;;;;;5034328;28;20008;-69
2021/06/22 13:22:59;;;;;;;;;;;15.50;91.10;;;;;;5034094;28;20003;-69
2021/06/22 13:25:26;;;;;;;;;;;15.50;91.20;;;;;;5034497;28;19970;-69
2021/06/22 13:27:55;;;;;;;;;;;15.40;91.10;;;;;;5032892;28;19943;-69
2021/06/22 13:30:27;;;;;;;;;;;15.30;90.90;;;;;;5034279;28;19950;-69
2021/06/22 13:32:56;;;;;;;;;;;15.20;91.30;;;;;;5034087;28;19984;-69
2021/06/22 13:35:32;;;;;;;;;;;15.10;91.40;;;;;;5034018;28;19927;-69
2021/06/22 13:38:01;;;;;;;;;;;15.10;91.40;;;;;;5033976;28;19990;-69
2021/06/22 13:40:33;;;;;;;;;;;15.00;91.60;;;;;;5032969;28;19926;-69
2021/06/22 13:43:07;;;;;;;;;;;15.10;91.40;;;;;;5033791;28;19984;-69
2021/06/22 13:45:36;;;;;;;;;;;15.10;91.40;;;;;;5032379;28;19922;-69
2021/06/22 13:48:02;;;;;;;;;;;15.00;91.40;;;;;;5033317;28;19994;-69
2021/06/22 13:50:28;;;;;;;;;;;15.00;91.40;;;;;;5033779;28;19921;-69
2021/06/22 13:52:54;;;;;;;;;;;15.00;91.40;;;;;;5033652;28;19934;-69
2021/06/22 13:55:35;;;;;;;;;;;14.90;91.70;;;;;;5032321;28;19921;-69
2021/06/22 13:58:02;;;;;;;;;;;14.90;91.60;;;;;;5032309;28;19928;-68
2021/06/22 14:00:27;;;;;;;;;;;14.90;91.60;;;;;;5033489;28;20015;-68
2021/06/22 14:02:53;;;;;;;;;;;14.90;91.60;;;;;;5032385;28;19964;-69
2021/06/22 14:05:19;;;;;;;;;;;14.80;91.80;;;;;;5033435;28;20378;-69
2021/06/22 14:07:44;;;;;;;;;;;14.90;91.70;;;;;;5033210;28;19952;-69
2021/06/22 14:10:11;;;;;;;;;;;14.90;91.80;;;;;;5033024;28;19921;-69
2021/06/22 14:12:36;;;;;;;;;;;14.90;91.70;;;;;;5032269;28;19960;-69